Latest Coastal Weather Observations for Karratha

IDW60701

Issued at 9:15 am WST Friday 29 August 2014 (issued every 10 minutes, with the page automatically refreshed every 10 minutes)

About coastal observations | Map of coastal stations | Coastal observations for WA | Marine services | Other Formats
Station Details ID: 004083 Name: KARRATHA AERO Lat: -20.71 Lon: 116.77 Height: 5.3 m
Data from the previous 72 hours. | See also: Recent months at Karratha
Date/Time
WST
Temp

°C
Wind Pressure Rain
since 9am
mm
Weather Cloud Vis
km
Sea
Height
m
Swell
Dir
 
Speed
knots
Gust
knots
hPa Trend Height
m
Period
s
Dir
29/09:00am 25.7 SE 5 6 1018.1 - 0.0 - - 10 - - - -
29/08:30am 23.4 SSE 5 7 1018.0 - 0.0 - - 10 - - - -
29/08:00am 21.4 SSE 4 5 1017.6 - 0.0 - - 10 - - - -
29/07:30am 18.7 SE 1 3 1017.3 - 0.0 - - 10 - - - -
29/07:00am 16.0 SE 1 4 1016.9 - 0.0 - - 10 - - - -
29/06:30am 14.4 SSE 4 5 1016.6 - 0.0 - - 10 - - - -
29/06:00am 13.0 SSE 5 7 1016.4 - 0.0 - - 10 - - - -
29/05:30am 13.6 S 7 9 1016.2 - 0.0 - - 10 - - - -
29/05:00am 13.4 S 7 9 1015.9 - 0.0 - - 10 - - - -
29/04:30am 13.6 S 8 9 1015.5 - 0.0 - - 10 - - - -
29/04:00am 13.7 S 9 9 1015.6 - 0.0 - - 10 - - - -
29/03:30am 14.5 S 9 10 1015.7 - 0.0 - - 10 - - - -
29/03:00am 14.1 S 8 9 1015.9 - 0.0 - - 10 - - - -
29/02:30am 14.2 S 7 8 1015.9 - 0.0 - - 10 - - - -
29/02:00am 15.3 S 5 6 1016.2 - 0.0 - - 10 - - - -
29/01:30am 15.7 SSW 1 3 1016.6 - 0.0 - - 10 - - - -
29/01:00am 15.3 S 5 6 1016.8 - 0.0 - - 10 - - - -
29/12:30am 16.4 S 5 6 1017.0 - 0.0 - - 10 - - - -
29/12:00am 16.5 S 6 9 1017.1 - 0.0 - - 10 - - - -
 
Date/Time
WST
Temp

°C
Wind Pressure Rain
since 9am
mm
Weather Cloud Vis
km
Sea
Height
m
Swell
Dir
 
Speed
knots
Gust
knots
hPa Trend Height
m
Period
s
Dir
28/11:30pm 15.3 SSE 8 9 1017.4 - 0.0 - - 10 - - - -
28/11:00pm 16.3 S 8 9 1017.4 - 0.0 - - 10 - - - -
28/10:30pm 17.5 SSW 7 8 1017.3 - 0.0 - - 10 - - - -
28/10:00pm 17.6 SSW 5 6 1017.1 - 0.0 - - 10 - - - -
28/09:30pm 19.0 S 2 5 1017.2 - 0.0 - - 10 - - - -
28/09:00pm 19.5 SW 1 4 1017.2 - 0.0 - - 10 - - - -
28/08:30pm 21.4 CALM 0 0 1016.9 - 0.0 - - 10 - - - -
28/08:00pm 21.1 ESE 1 4 1016.6 - 0.0 - - 10 - - - -
28/07:30pm 20.6 NE 6 7 1016.1 - 0.0 - - 10 - - - -
28/07:00pm 21.6 NE 7 8 1015.7 - 0.0 - - 10 - - - -
28/06:30pm 22.8 NE 8 10 1015.5 - 0.0 - - 10 - - - -
28/06:00pm 24.3 NE 8 11 1015.3 - 0.0 - - 10 - - - -
28/05:30pm 25.5 NE 10 13 1015.1 - 0.0 - - 10 - - - -
28/05:00pm 26.9 NE 12 15 1014.9 - 0.0 - - 10 - - - -
28/04:30pm 27.9 NE 12 15 1014.5 - 0.0 - - 10 - - - -
28/04:00pm 29.1 NE 12 16 1014.4 - 0.0 - - 10 - - - -
28/03:30pm 30.1 NE 12 17 1014.4 - 0.0 - - 10 - - - -
28/03:00pm 30.5 NE 12 15 1014.6 - 0.0 - - 10 - - - -
28/02:30pm 31.0 NE 13 16 1014.7 - 0.0 - - 10 - - - -
28/02:00pm 31.4 NE 12 16 1015.1 - 0.0 - - 10 - - - -
28/01:30pm 31.5 NE 14 19 1015.2 - 0.0 - - 10 - - - -
28/01:00pm 32.0 ENE 7 11 1015.6 - 0.0 - - 10 - - - -
28/12:30pm 32.6 E 8 11 1015.8 - 0.0 - - 10 - - - -
28/12:00pm 31.8 E 8 12 1016.1 - 0.0 - - 10 - - - -
28/11:30am 31.1 E 8 11 1016.5 - 0.0 - - 10 - - - -
28/11:00am 30.4 ENE 7 10 1016.7 - 0.0 - - 10 - - - -
28/10:30am 29.3 E 7 10 1017.2 - 0.0 - - 10 - - - -
28/10:00am 28.3 E 7 10 1017.5 - 0.0 - - 10 - - - -
28/09:30am 26.2 ENE 3 5 1017.8 - 0.0 - - 10 - - - -
28/09:00am 24.1 NW 2 4 1018.0 - 0.0 - - 10 - - - -
28/08:30am 22.2 CALM 0 0 1017.9 - 0.0 - - 10 - - - -
28/08:00am 19.0 CALM 0 0 1017.7 - 0.0 - - 10 - - - -
28/07:30am 16.5 S 2 4 1017.6 - 0.0 - - 10 - - - -
28/07:00am 13.8 S 7 9 1017.1 - 0.0 - - 10 - - - -
28/06:30am 13.4 ESE 3 5 1016.7 - 0.0 - - 10 - - - -
28/06:00am 13.3 SE 5 6 1016.5 - 0.0 - - 10 - - - -
28/05:30am 13.8 S 7 8 1016.2 - 0.0 - - 10 - - - -
28/05:00am 13.7 S 7 8 1016.1 - 0.0 - - 10 - - - -
28/04:30am 13.8 S 8 9 1015.9 - 0.0 - - 10 - - - -
28/04:00am 14.5 S 7 8 1015.9 - 0.0 - - 10 - - - -
28/03:30am 14.4 S 8 9 1015.8 - 0.0 - - 10 - - - -
28/03:00am 14.6 S 8 9 1015.7 - 0.0 - - 10 - - - -
28/02:30am 15.0 S 8 9 1015.6 - 0.0 - - 10 - - - -
28/02:00am 14.8 S 8 11 1015.8 - 0.0 - - 10 - - - -
28/01:30am 15.3 S 9 11 1016.1 - 0.0 - - 10 - - - -
28/01:00am 14.8 S 6 8 1016.2 - 0.0 - - 10 - - - -
28/12:30am 15.8 S 8 10 1016.4 - 0.0 - - 10 - - - -
28/12:00am 15.8 S 8 10 1016.6 - 0.0 - - 10 - - - -
 
Date/Time
WST
Temp

°C
Wind Pressure Rain
since 9am
mm
Weather Cloud Vis
km
Sea
Height
m
Swell
Dir
 
Speed
knots
Gust
knots
hPa Trend Height
m
Period
s
Dir
27/11:30pm 15.9 S 7 8 1016.8 - 0.0 - - 10 - - - -
27/11:00pm 16.6 SSE 3 3 1016.8 - 0.0 - - 10 - - - -
27/10:30pm 16.6 ESE 4 5 1016.7 - 0.0 - - 10 - - - -
27/10:00pm 17.3 SSE 4 5 1016.8 - 0.0 - - 10 - - - -
27/09:30pm 17.4 ESE 5 6 1016.9 - 0.0 - - 10 - - - -
27/09:00pm 17.7 SE 4 5 1016.8 - 0.0 - - 10 - - - -
27/08:30pm 20.2 ENE 3 4 1016.6 - 0.0 - - 10 - - - -
27/08:00pm 20.9 ENE 5 7 1016.4 - 0.0 - - 10 - - - -
27/07:30pm 21.3 SSW 4 5 1016.1 - 0.0 - - 10 - - - -
27/07:00pm 21.5 NE 6 7 1015.6 - 0.0 - - 10 - - - -
27/06:30pm 22.7 NNE 8 10 1015.1 - 0.0 - - 10 - - - -
27/06:00pm 24.0 NNE 11 13 1014.8 - 0.0 - - 10 - - - -
27/05:30pm 25.3 NE 11 14 1014.8 - 0.0 - - 10 - - - -
27/05:00pm 26.5 NNE 12 15 1014.7 - 0.0 - - 10 - - - -
27/04:30pm 27.2 NNE 12 15 1014.6 - 0.0 - - 10 - - - -
27/04:00pm 28.6 NNE 14 19 1014.5 - 0.0 - - 10 - - - -
27/03:30pm 28.7 NNE 13 17 1014.6 - 0.0 - - 10 - - - -
27/03:00pm 28.5 NNE 12 15 1014.9 - 0.0 - - 10 - - - -
27/02:30pm 28.7 NE 12 15 1015.2 - 0.0 - - 10 - - - -
27/02:00pm 28.2 NE 13 17 1015.4 - 0.0 - - 10 - - - -
27/01:30pm 27.7 NE 15 19 1015.5 - 0.0 - - 10 - - - -
27/01:00pm 27.2 NE 16 19 1015.8 - 0.0 - - 10 - - - -
27/12:30pm 28.1 NE 15 20 1016.3 - 0.0 - - 10 - - - -
27/12:00pm 28.5 ENE 13 16 1016.7 - 0.0 - - 10 - - - -
27/11:30am 28.8 NE 13 17 1017.2 - 0.0 - - 10 - - - -
27/11:00am 29.8 ENE 13 17 1017.4 - 0.0 - - 10 - - - -
27/10:30am 29.9 ENE 11 14 1017.8 - 0.0 - - 10 - - - -
27/10:00am 28.8 E 8 11 1017.9 - 0.0 - - 10 - - - -
27/09:30am 28.1 E 7 10 1017.9 - 0.0 - - 10 - - - -
27/09:00am 26.0 SE 6 8 1017.9 - 0.0 - - 10 - - - -
27/08:30am 23.5 S 7 8 1018.0 - 0.0 - - 10 - - - -
27/08:00am 20.8 S 5 7 1017.8 - 0.0 - - 10 - - - -
27/07:30am 16.9 CALM 0 0 1017.4 - 0.0 - - 10 - - - -
27/07:00am 14.6 S 1 4 1017.0 - 0.0 - - 10 - - - -
27/06:30am 14.2 S 6 7 1016.7 - 0.0 - - 10 - - - -
27/06:00am 14.0 S 5 6 1016.4 - 0.0 - - 10 - - - -
27/05:30am 14.9 CALM 0 3 1016.0 - 0.0 - - 10 - - - -
27/05:00am 15.6 SE 4 6 1015.7 - 0.0 - - 10 - - - -
27/04:30am 14.8 S 8 9 1015.5 - 0.0 - - 10 - - - -
27/04:00am 14.7 SSE 9 10 1015.4 - 0.0 - - 10 - - - -
27/03:30am 14.6 S 10 11 1015.5 - 0.0 - - 10 - - - -
27/03:00am 14.4 S 8 10 1015.7 - 0.0 - - 10 - - - -
27/02:30am 15.3 S 9 10 1015.7 - 0.0 - - 10 - - - -
27/02:00am 14.4 SSE 8 10 1016.2 - 0.0 - - 10 - - - -
27/01:30am 14.7 S 4 5 1016.3 - 0.0 - - 10 - - - -
27/01:00am 15.5 S 9 10 1016.5 - 0.0 - - 10 - - - -
27/12:30am 15.8 SSE 7 14 1016.6 - 0.0 - - 10 - - - -
27/12:00am 15.6 S 6 8 1016.7 - 0.0 - - 10 - - - -
 
Date/Time
WST
Temp

°C
Wind Pressure Rain
since 9am
mm
Weather Cloud Vis
km
Sea
Height
m
Swell
Dir
 
Speed
knots
Gust
knots
hPa Trend Height
m
Period
s
Dir
26/11:30pm 15.8 SSE 5 7 1016.8 - 0.0 - - 10 - - - -
26/11:00pm 15.9 S 7 8 1016.9 - 0.0 - - 10 - - - -
26/10:30pm 16.1 SSW 5 6 1016.9 - 0.0 - - 10 - - - -
26/10:00pm 16.8 SSE 3 4 1017.0 - 0.0 - - 10 - - - -
26/09:30pm 17.0 S 6 8 1017.2 - 0.0 - - 10 - - - -
26/09:00pm 18.2 SSE 7 8 1017.1 - 0.0 - - 10 - - - -
26/08:30pm 18.8 SSE 6 7 1017.0 - 0.0 - - 10 - - - -
26/08:00pm 20.1 SE 4 5 1016.9 - 0.0 - - 10 - - - -
26/07:30pm 21.9 NE 2 5 1016.6 - 0.0 - - 10 - - - -
26/07:00pm 23.7 N 6 7 1016.1 - 0.0 - - 10 - - - -
26/06:30pm 24.3 N 8 9 1015.6 - 0.0 - - 10 - - - -
26/06:00pm 24.8 NNE 7 8 1015.5 - 0.0 - - 10 - - - -
26/05:30pm 25.8 NNE 10 12 1015.3 - 0.0 - - 10 - - - -
26/05:00pm 26.4 NNE 11 15 1015.3 - 0.0 - - 10 - - - -
26/04:30pm 27.0 NNE 15 19 1015.2 - 0.0 - - 10 - - - -
26/04:00pm 26.9 NNE 14 19 1015.3 - 0.0 - - 10 - - - -
26/03:30pm 27.3 NNE 15 19 1015.3 - 0.0 - - 10 - - - -
26/03:00pm 27.3 NNE 15 21 1015.5 - 0.0 - - 10 - - - -
26/02:30pm 27.4 NNE 16 22 1015.8 - 0.0 - - 10 - - - -
26/02:00pm 27.5 NE 16 23 1016.2 - 0.0 - - 10 - - - -
26/01:30pm 27.2 NE 14 18 1016.8 - 0.0 - - 10 - - - -
26/01:00pm 26.9 NE 14 19 1017.2 - 0.0 - - 10 - - - -
26/12:30pm 27.7 NE 13 19 1017.7 - 0.0 - - 10 - - - -
26/12:00pm 27.5 NE 12 17 1018.2 - 0.0 - - 10 - - - -
26/11:30am 27.2 NNE 11 15 1018.6 - 0.0 - - 10 - - - -
26/11:00am 27.7 NE 13 19 1019.0 - 0.0 - - 10 - - - -
26/10:30am 28.2 ENE 13 17 1019.3 - 0.0 - - 10 - - - -
26/10:00am 28.5 ENE 11 14 1019.5 - 0.0 - - 10 - - - -
26/09:30am 28.4 E 12 16 1019.6 - 0.0 - - 10 - - - -

Other Formats:

Comma delimited format used in spreadsheet applications
http://www.bom.gov.au/fwo/IDW60701/IDW60701.95307.axf

JavaScript Object Notation format (JSON) in row-major order
http://www.bom.gov.au/fwo/IDW60701/IDW60701.95307.json